createdAt,value
2016-09-25T00:00:55.723Z,1011.71
2016-09-25T00:01:55.713Z,1011.74
2016-09-25T00:02:55.703Z,1011.7
2016-09-25T00:03:55.690Z,1011.72
2016-09-25T00:04:55.681Z,1011.74
2016-09-25T00:05:55.670Z,1011.72
2016-09-25T00:06:55.660Z,1011.69
2016-09-25T00:07:55.650Z,1011.71
2016-09-25T00:08:55.639Z,1011.67
2016-09-25T00:09:55.628Z,1011.68
2016-09-25T00:10:55.617Z,1011.67
2016-09-25T00:11:55.608Z,1011.65
2016-09-25T00:12:55.597Z,1011.65
2016-09-25T00:13:55.587Z,1011.64
2016-09-25T00:14:55.575Z,1011.68
2016-09-25T00:15:55.565Z,1011.68
2016-09-25T00:16:55.555Z,1011.66
2016-09-25T00:17:55.548Z,1011.69
2016-09-25T00:18:55.534Z,1011.69
2016-09-25T00:19:55.523Z,1011.67
2016-09-25T00:20:55.511Z,1011.64
2016-09-25T00:21:55.500Z,1011.6
2016-09-25T00:22:55.489Z,1011.64
2016-09-25T00:23:55.479Z,1011.6
2016-09-25T00:24:55.470Z,1011.6
2016-09-25T00:25:55.457Z,1011.64
2016-09-25T00:26:55.448Z,1011.68
2016-09-25T00:27:55.440Z,1011.65
2016-09-25T00:28:55.424Z,1011.7
2016-09-25T00:29:55.413Z,1011.65
2016-09-25T00:30:55.403Z,1011.64
2016-09-25T00:31:55.392Z,1011.62
2016-09-25T00:32:55.383Z,1011.62
2016-09-25T00:33:55.372Z,1011.65
2016-09-25T00:34:55.370Z,1011.62
2016-09-25T00:35:55.351Z,1011.63
2016-09-25T00:36:55.340Z,1011.64
2016-09-25T00:37:55.329Z,1011.62
2016-09-25T00:38:55.319Z,1011.58
2016-09-25T00:39:55.307Z,1011.6
2016-09-25T00:40:55.296Z,1011.59
2016-09-25T00:41:55.335Z,1011.6
2016-09-25T00:42:55.477Z,1011.59
2016-09-25T00:43:55.267Z,1011.62
2016-09-25T00:44:55.254Z,1011.56
2016-09-25T00:45:55.241Z,1011.57
2016-09-25T00:46:55.232Z,1011.59
2016-09-25T00:47:55.220Z,1011.58
2016-09-25T00:48:55.209Z,1011.57
2016-09-25T00:49:55.201Z,1011.57
2016-09-25T00:50:55.188Z,1011.54
2016-09-25T00:51:55.176Z,1011.55
2016-09-25T00:52:55.166Z,1011.57
2016-09-25T00:53:55.156Z,1011.54
2016-09-25T00:54:55.144Z,1011.5
2016-09-25T00:55:55.133Z,1011.5
2016-09-25T00:56:55.123Z,1011.48
2016-09-25T00:57:55.112Z,1011.54
2016-09-25T00:58:55.099Z,1011.53
2016-09-25T00:59:55.091Z,1011.52
2016-09-25T01:00:55.081Z,1011.5
2016-09-25T01:01:55.068Z,1011.47
2016-09-25T01:02:55.058Z,1011.49
2016-09-25T01:03:55.046Z,1011.49
2016-09-25T01:04:55.035Z,1011.46
2016-09-25T01:05:55.024Z,1011.45
2016-09-25T01:06:55.013Z,1011.44
2016-09-25T01:07:55.003Z,1011.46
2016-09-25T01:08:54.988Z,1011.45
2016-09-25T01:09:54.979Z,1011.4
2016-09-25T01:10:54.969Z,1011.39
2016-09-25T01:11:54.959Z,1011.38
2016-09-25T01:12:54.946Z,1011.37
2016-09-25T01:13:54.934Z,1011.35
2016-09-25T01:14:54.924Z,1011.35
2016-09-25T01:15:54.914Z,1011.35
2016-09-25T01:16:54.901Z,1011.32
2016-09-25T01:17:54.892Z,1011.31
2016-09-25T01:18:54.880Z,1011.3
2016-09-25T01:19:54.870Z,1011.26
2016-09-25T01:20:54.856Z,1011.25
2016-09-25T01:21:54.846Z,1011.27
2016-09-25T01:22:54.842Z,1011.25
2016-09-25T01:23:54.824Z,1011.23
2016-09-25T01:24:54.812Z,1011.22
2016-09-25T01:25:54.806Z,1011.21
2016-09-25T01:26:54.791Z,1011.2
2016-09-25T01:27:54.777Z,1011.2
2016-09-25T01:28:54.767Z,1011.18
2016-09-25T01:29:54.758Z,1011.16
2016-09-25T01:30:54.749Z,1011.16
2016-09-25T01:31:54.736Z,1011.14
2016-09-25T01:32:54.725Z,1011.07
2016-09-25T01:33:54.716Z,1011.1
2016-09-25T01:34:54.699Z,1011.05
2016-09-25T01:35:54.688Z,1011.09
2016-09-25T01:36:54.678Z,1011.07
2016-09-25T01:37:54.666Z,1011.07
2016-09-25T01:38:54.656Z,1011.07
2016-09-25T01:39:54.643Z,1011.05
2016-09-25T01:40:54.637Z,1011.05
2016-09-25T01:41:54.622Z,1011.06
2016-09-25T01:42:54.608Z,1011.02
2016-09-25T01:43:54.598Z,1011.07
2016-09-25T01:44:54.587Z,1011.07
2016-09-25T01:45:54.575Z,1011.02
2016-09-25T01:46:54.565Z,1011.02
2016-09-25T01:47:54.553Z,1010.99
2016-09-25T01:48:54.544Z,1010.97
2016-09-25T01:49:54.530Z,1010.93
2016-09-25T01:50:54.520Z,1010.97
2016-09-25T01:51:54.508Z,1010.93
2016-09-25T01:52:54.504Z,1010.94
2016-09-25T01:53:54.485Z,1010.95
2016-09-25T01:54:54.474Z,1010.94
2016-09-25T01:55:54.464Z,1010.9
2016-09-25T01:56:54.451Z,1010.93
2016-09-25T01:57:54.439Z,1010.93
2016-09-25T01:58:54.428Z,1010.88
2016-09-25T01:59:54.418Z,1010.91
2016-09-25T02:00:54.405Z,1010.88
2016-09-25T02:01:54.394Z,1010.92
2016-09-25T02:02:54.385Z,1010.91
2016-09-25T02:03:54.372Z,1010.89
2016-09-25T02:04:54.361Z,1010.9
2016-09-25T02:05:54.348Z,1010.92
2016-09-25T02:06:54.339Z,1010.91
2016-09-25T02:07:54.326Z,1010.9
2016-09-25T02:08:54.332Z,1010.87
2016-09-25T02:09:54.307Z,1010.84
2016-09-25T02:10:54.293Z,1010.87
2016-09-25T02:11:54.281Z,1010.9
2016-09-25T02:12:54.268Z,1010.86
2016-09-25T02:13:54.258Z,1010.83
2016-09-25T02:14:54.245Z,1010.84
2016-09-25T02:15:54.234Z,1010.82
2016-09-25T02:16:54.224Z,1010.82
2016-09-25T02:17:54.211Z,1010.76
2016-09-25T02:18:54.200Z,1010.75
2016-09-25T02:19:54.190Z,1010.76
2016-09-25T02:20:54.178Z,1010.74
2016-09-25T02:21:54.166Z,1010.71
2016-09-25T02:22:54.154Z,1010.73
2016-09-25T02:23:54.144Z,1010.72
2016-09-25T02:24:54.132Z,1010.7
2016-09-25T02:25:54.119Z,1010.68
2016-09-25T02:26:54.109Z,1010.67
2016-09-25T02:27:54.102Z,1010.66
2016-09-25T02:28:54.085Z,1010.67
2016-09-25T02:29:54.072Z,1010.69
2016-09-25T02:30:54.067Z,1010.64
2016-09-25T02:31:54.052Z,1010.65
2016-09-25T02:32:54.040Z,1010.6
2016-09-25T02:33:54.029Z,1010.6
2016-09-25T02:34:54.018Z,1010.59
2016-09-25T02:35:54.013Z,1010.56
2016-09-25T02:36:53.995Z,1010.56
2016-09-25T02:37:53.986Z,1010.54
2016-09-25T02:38:53.971Z,1010.53
2016-09-25T02:39:53.958Z,1010.53
2016-09-25T02:40:53.948Z,1010.54
2016-09-25T02:41:53.936Z,1010.53
2016-09-25T02:42:54.128Z,1010.5
2016-09-25T02:43:53.913Z,1010.51
2016-09-25T02:44:53.900Z,1010.51
2016-09-25T02:45:53.893Z,1010.52
2016-09-25T02:46:53.883Z,1010.49
2016-09-25T02:47:53.869Z,1010.48
2016-09-25T02:48:53.858Z,1010.5
2016-09-25T02:49:53.843Z,1010.5
2016-09-25T02:50:53.839Z,1010.49
2016-09-25T02:51:53.819Z,1010.48
2016-09-25T02:52:53.813Z,1010.49
2016-09-25T02:53:53.800Z,1010.5
2016-09-25T02:54:53.784Z,1010.48
2016-09-25T02:55:53.777Z,1010.48
2016-09-25T02:56:53.765Z,1010.51
2016-09-25T02:57:53.751Z,1010.47
2016-09-25T02:58:53.738Z,1010.46
2016-09-25T02:59:53.778Z,1010.43
2016-09-25T03:00:53.716Z,1010.45
2016-09-25T03:01:53.713Z,1010.43
2016-09-25T03:02:53.696Z,1010.41
2016-09-25T03:03:53.693Z,1010.41
2016-09-25T03:04:53.668Z,1010.4
2016-09-25T03:05:53.661Z,1010.4
2016-09-25T03:06:53.645Z,1010.38
2016-09-25T03:07:53.639Z,1010.36
2016-09-25T03:08:53.623Z,1010.39
2016-09-25T03:09:53.634Z,1010.37
2016-09-25T03:10:53.600Z,1010.34
2016-09-25T03:11:53.600Z,1010.38
2016-09-25T03:12:53.576Z,1010.36
2016-09-25T03:13:53.564Z,1010.35
2016-09-25T03:14:53.552Z,1010.34
2016-09-25T03:15:53.540Z,1010.32
2016-09-25T03:16:53.527Z,1010.3
2016-09-25T03:17:53.516Z,1010.31
2016-09-25T03:18:53.505Z,1010.27
2016-09-25T03:19:53.493Z,1010.29
2016-09-25T03:20:53.481Z,1010.27
2016-09-25T03:21:53.468Z,1010.26
2016-09-25T03:22:53.459Z,1010.24
2016-09-25T03:23:53.447Z,1010.25
2016-09-25T03:24:53.435Z,1010.26
2016-09-25T03:25:53.423Z,1010.24
2016-09-25T03:26:53.415Z,1010.24
2016-09-25T03:27:53.405Z,1010.24
2016-09-25T03:28:53.400Z,1010.24
2016-09-25T03:29:53.393Z,1010.24
2016-09-25T03:30:53.365Z,1010.28
2016-09-25T03:31:53.351Z,1010.24
2016-09-25T03:32:53.340Z,1010.21
2016-09-25T03:33:53.331Z,1010.2
2016-09-25T03:34:53.317Z,1010.22
2016-09-25T03:35:53.305Z,1010.24
2016-09-25T03:36:53.293Z,1010.24
2016-09-25T03:37:53.297Z,1010.22
2016-09-25T03:38:53.269Z,1010.22
2016-09-25T03:39:53.256Z,1010.19
2016-09-25T03:40:53.244Z,1010.15
2016-09-25T03:41:53.234Z,1010.18
2016-09-25T03:42:53.220Z,1010.14
2016-09-25T03:43:53.211Z,1010.14
2016-09-25T03:44:53.199Z,1010.16
2016-09-25T03:45:53.191Z,1010.16
2016-09-25T03:46:53.174Z,1010.13
2016-09-25T03:47:53.160Z,1010.12
2016-09-25T03:48:53.148Z,1010.14
2016-09-25T03:49:53.136Z,1010.16
2016-09-25T03:50:53.126Z,1010.13
2016-09-25T03:51:53.112Z,1010.12
2016-09-25T03:52:53.102Z,1010.13
2016-09-25T03:53:53.089Z,1010.12
2016-09-25T03:54:53.076Z,1010.12
2016-09-25T03:55:53.064Z,1010.11
2016-09-25T03:56:53.054Z,1010.08
2016-09-25T03:57:53.040Z,1010.11
2016-09-25T03:58:53.028Z,1010.1
2016-09-25T03:59:53.017Z,1010.11
2016-09-25T04:00:53.004Z,1010.08
2016-09-25T04:01:52.992Z,1010.11
2016-09-25T04:02:53.182Z,1010.09
2016-09-25T04:03:52.968Z,1010.06
2016-09-25T04:04:52.957Z,1010.05
2016-09-25T04:05:52.945Z,1010.04
2016-09-25T04:06:52.933Z,1010.01
2016-09-25T04:07:52.920Z,1010
2016-09-25T04:08:52.911Z,1010
2016-09-25T04:09:52.897Z,1010.02
2016-09-25T04:10:52.885Z,1010.02
2016-09-25T04:11:52.870Z,1009.98
2016-09-25T04:12:52.862Z,1010.01
2016-09-25T04:13:52.849Z,1010.01
2016-09-25T04:14:52.836Z,1009.99
2016-09-25T04:15:52.826Z,1010
2016-09-25T04:16:52.812Z,1010.03
2016-09-25T04:17:52.800Z,1010.03
2016-09-25T04:18:52.787Z,1010
2016-09-25T04:19:52.775Z,1010
2016-09-25T04:20:52.764Z,1010.04
2016-09-25T04:21:52.753Z,1010.03
2016-09-25T04:22:52.738Z,1009.99
2016-09-25T04:23:52.730Z,1010
2016-09-25T04:24:52.715Z,1009.99
2016-09-25T04:25:52.703Z,1009.98
2016-09-25T04:26:52.691Z,1009.95
2016-09-25T04:27:52.678Z,1009.99
2016-09-25T04:28:52.671Z,1009.93
2016-09-25T04:29:52.653Z,1009.95
2016-09-25T04:30:52.642Z,1009.93
2016-09-25T04:31:52.631Z,1009.97
2016-09-25T04:32:52.619Z,1009.94
2016-09-25T04:33:52.609Z,1009.94
2016-09-25T04:34:52.598Z,1009.96
2016-09-25T04:35:52.582Z,1009.92
2016-09-25T04:36:52.571Z,1009.98
2016-09-25T04:37:52.557Z,1009.97
2016-09-25T04:38:52.547Z,1009.97
2016-09-25T04:39:52.533Z,1009.96
2016-09-25T04:40:52.521Z,1009.96
2016-09-25T04:41:52.510Z,1009.96
2016-09-25T04:42:52.497Z,1009.95
2016-09-25T04:43:52.486Z,1009.94
2016-09-25T04:44:52.473Z,1009.92
2016-09-25T04:45:52.462Z,1009.94
2016-09-25T04:46:52.448Z,1009.88
2016-09-25T04:47:52.436Z,1009.91
2016-09-25T04:48:52.426Z,1009.93
2016-09-25T04:49:52.462Z,1009.93
2016-09-25T04:50:52.403Z,1009.9
2016-09-25T04:51:52.388Z,1009.9
2016-09-25T04:52:52.375Z,1009.94
2016-09-25T04:53:52.373Z,1009.89
2016-09-25T04:54:52.357Z,1009.91
2016-09-25T04:55:52.342Z,1009.9
2016-09-25T04:56:52.329Z,1009.91
2016-09-25T04:57:52.318Z,1009.92
2016-09-25T04:58:52.305Z,1009.82
2016-09-25T04:59:52.291Z,1009.84
2016-09-25T05:00:52.279Z,1009.83
2016-09-25T05:01:52.267Z,1009.85
2016-09-25T05:02:52.255Z,1009.84
2016-09-25T05:03:52.242Z,1009.8
2016-09-25T05:04:52.231Z,1009.78
2016-09-25T05:05:52.219Z,1009.82
2016-09-25T05:06:52.208Z,1009.77
2016-09-25T05:07:52.194Z,1009.81
2016-09-25T05:08:52.182Z,1009.81
2016-09-25T05:09:52.170Z,1009.77
2016-09-25T05:10:52.156Z,1009.81
2016-09-25T05:11:52.145Z,1009.79
2016-09-25T05:12:52.133Z,1009.73
2016-09-25T05:13:52.120Z,1009.78
2016-09-25T05:14:52.109Z,1009.75
2016-09-25T05:15:52.097Z,1009.77
2016-09-25T05:16:52.085Z,1009.76
2016-09-25T05:17:52.074Z,1009.76
2016-09-25T05:18:52.060Z,1009.76
2016-09-25T05:19:52.046Z,1009.74
2016-09-25T05:20:52.035Z,1009.73
2016-09-25T05:21:52.021Z,1009.72
2016-09-25T05:22:52.011Z,1009.75
2016-09-25T05:23:52.000Z,1009.7
2016-09-25T05:24:51.985Z,1009.71
2016-09-25T05:25:51.974Z,1009.72
2016-09-25T05:26:51.962Z,1009.7
2016-09-25T05:27:51.950Z,1009.72
2016-09-25T05:28:51.937Z,1009.68
2016-09-25T05:29:51.925Z,1009.69
2016-09-25T05:30:51.915Z,1009.67
2016-09-25T05:31:51.903Z,1009.69
2016-09-25T05:32:51.887Z,1009.68
2016-09-25T05:33:51.878Z,1009.69
2016-09-25T05:34:51.865Z,1009.73
2016-09-25T05:35:51.852Z,1009.67
2016-09-25T05:36:51.845Z,1009.67
2016-09-25T05:37:51.826Z,1009.71
2016-09-25T05:38:51.815Z,1009.69
2016-09-25T05:39:51.803Z,1009.71
2016-09-25T05:40:51.792Z,1009.65
2016-09-25T05:41:51.783Z,1009.7
2016-09-25T05:42:51.766Z,1009.67
2016-09-25T05:43:51.758Z,1009.68
2016-09-25T05:44:51.745Z,1009.7
2016-09-25T05:45:51.731Z,1009.65
2016-09-25T05:46:51.722Z,1009.65
2016-09-25T05:47:51.706Z,1009.63
2016-09-25T05:48:51.695Z,1009.6
2016-09-25T05:49:51.683Z,1009.66
2016-09-25T05:50:51.672Z,1009.62
2016-09-25T05:51:51.659Z,1009.63
2016-09-25T05:52:51.659Z,1009.63
2016-09-25T05:53:51.635Z,1009.64
2016-09-25T05:54:51.624Z,1009.63
2016-09-25T05:55:51.611Z,1009.67
2016-09-25T05:56:51.598Z,1009.68
2016-09-25T05:57:51.587Z,1009.7
2016-09-25T05:58:51.579Z,1009.64
2016-09-25T05:59:51.567Z,1009.64
2016-09-25T06:00:51.570Z,1009.62
2016-09-25T06:01:51.538Z,1009.64
2016-09-25T06:02:51.525Z,1009.61
2016-09-25T06:03:51.515Z,1009.62
2016-09-25T06:04:51.505Z,1009.62
2016-09-25T06:05:51.540Z,1009.62
2016-09-25T06:06:51.479Z,1009.6
2016-09-25T06:07:51.467Z,1009.61
2016-09-25T06:08:51.454Z,1009.61
2016-09-25T06:09:51.446Z,1009.59
2016-09-25T06:10:51.432Z,1009.6
2016-09-25T06:11:51.419Z,1009.6
2016-09-25T06:12:51.408Z,1009.59
2016-09-25T06:13:51.395Z,1009.68
2016-09-25T06:14:51.385Z,1009.65
2016-09-25T06:15:51.372Z,1009.64
2016-09-25T06:16:51.362Z,1009.65
2016-09-25T06:17:51.355Z,1009.64
2016-09-25T06:18:51.339Z,1009.65
2016-09-25T06:19:51.329Z,1009.67
2016-09-25T06:20:51.313Z,1009.67
2016-09-25T06:21:51.302Z,1009.66
2016-09-25T06:22:51.295Z,1009.68
2016-09-25T06:23:51.279Z,1009.65
2016-09-25T06:24:51.269Z,1009.65
2016-09-25T06:25:51.255Z,1009.67
2016-09-25T06:26:51.242Z,1009.69
2016-09-25T06:27:51.232Z,1009.65
2016-09-25T06:28:51.224Z,1009.63
2016-09-25T06:29:51.215Z,1009.62
2016-09-25T06:30:51.197Z,1009.58
2016-09-25T06:31:51.185Z,1009.6
2016-09-25T06:32:51.175Z,1009.6
2016-09-25T06:33:51.164Z,1009.62
2016-09-25T06:34:51.151Z,1009.61
2016-09-25T06:35:51.141Z,1009.63
2016-09-25T06:36:51.128Z,1009.62
2016-09-25T06:37:51.117Z,1009.61
2016-09-25T06:38:51.106Z,1009.65
2016-09-25T06:39:51.094Z,1009.61
2016-09-25T06:40:51.086Z,1009.62
2016-09-25T06:41:51.070Z,1009.65
2016-09-25T06:42:51.060Z,1009.61
2016-09-25T06:43:51.254Z,1009.59
2016-09-25T06:44:51.040Z,1009.64
2016-09-25T06:45:51.025Z,1009.6
2016-09-25T06:46:51.016Z,1009.63
2016-09-25T06:47:51.005Z,1009.64
2016-09-25T06:48:50.991Z,1009.62
2016-09-25T06:49:50.980Z,1009.61
2016-09-25T06:50:50.970Z,1009.64
2016-09-25T06:51:50.960Z,1009.62
2016-09-25T06:52:50.947Z,1009.6
2016-09-25T06:53:50.985Z,1009.6
2016-09-25T06:54:50.925Z,1009.56
2016-09-25T06:55:50.917Z,1009.55
2016-09-25T06:56:50.905Z,1009.58
2016-09-25T06:57:50.892Z,1009.54
2016-09-25T06:58:50.879Z,1009.57
2016-09-25T06:59:50.870Z,1009.59
2016-09-25T07:00:50.858Z,1009.56
2016-09-25T07:01:50.849Z,1009.52
2016-09-25T07:02:50.836Z,1009.53
2016-09-25T07:03:50.833Z,1009.52
2016-09-25T07:04:50.819Z,1009.51
2016-09-25T07:05:50.804Z,1009.53
2016-09-25T07:06:50.798Z,1009.54
2016-09-25T07:07:50.781Z,1009.52
2016-09-25T07:08:50.769Z,1009.47
2016-09-25T07:09:50.760Z,1009.52
2016-09-25T07:10:50.763Z,1009.55
2016-09-25T07:11:50.738Z,1009.5
2016-09-25T07:12:50.727Z,1009.52
2016-09-25T07:13:50.714Z,1009.52
2016-09-25T07:14:50.704Z,1009.49
2016-09-25T07:15:50.695Z,1009.49
2016-09-25T07:16:50.681Z,1009.48
2016-09-25T07:17:50.673Z,1009.48
2016-09-25T07:18:50.662Z,1009.47
2016-09-25T07:19:50.651Z,1009.48
2016-09-25T07:20:50.642Z,1009.48
2016-09-25T07:21:50.633Z,1009.5
2016-09-25T07:22:50.622Z,1009.46
2016-09-25T07:23:50.608Z,1009.51
2016-09-25T07:24:50.598Z,1009.47
2016-09-25T07:25:50.589Z,1009.49
2016-09-25T07:26:50.594Z,1009.45
2016-09-25T07:27:50.568Z,1009.47
2016-09-25T07:28:50.553Z,1009.51
2016-09-25T07:29:50.546Z,1009.45
2016-09-25T07:30:50.534Z,1009.55
2016-09-25T07:31:50.524Z,1009.49
2016-09-25T07:32:50.513Z,1009.52
2016-09-25T07:33:50.501Z,1009.52
2016-09-25T07:34:50.491Z,1009.5
2016-09-25T07:35:50.482Z,1009.45
2016-09-25T07:36:50.472Z,1009.4
2016-09-25T07:37:50.461Z,1009.44
2016-09-25T07:38:50.449Z,1009.44
2016-09-25T07:39:50.440Z,1009.44
2016-09-25T07:40:50.429Z,1009.42
2016-09-25T07:41:50.422Z,1009.42
2016-09-25T07:42:50.410Z,1009.37
2016-09-25T07:43:50.399Z,1009.4
2016-09-25T07:44:50.391Z,1009.39
2016-09-25T07:45:50.378Z,1009.46
2016-09-25T07:46:50.367Z,1009.46
2016-09-25T07:47:50.358Z,1009.43
2016-09-25T07:48:50.348Z,1009.39
2016-09-25T07:49:50.339Z,1009.42
2016-09-25T07:50:50.327Z,1009.42
2016-09-25T07:51:50.318Z,1009.42
2016-09-25T07:52:50.307Z,1009.43
2016-09-25T07:53:50.301Z,1009.39
2016-09-25T07:54:50.286Z,1009.35
2016-09-25T07:55:50.279Z,1009.33
2016-09-25T07:56:50.270Z,1009.39
2016-09-25T07:57:50.261Z,1009.39
2016-09-25T07:58:50.249Z,1009.32
2016-09-25T07:59:50.239Z,1009.33
2016-09-25T08:00:50.231Z,1009.32
2016-09-25T08:01:50.221Z,1009.35
2016-09-25T08:02:50.210Z,1009.36
2016-09-25T08:03:50.200Z,1009.34
2016-09-25T08:04:50.195Z,1009.38
2016-09-25T08:05:50.182Z,1009.41
2016-09-25T08:06:50.170Z,1009.4
2016-09-25T08:07:50.164Z,1009.4
2016-09-25T08:08:50.156Z,1009.37
2016-09-25T08:09:50.142Z,1009.37
2016-09-25T08:10:50.134Z,1009.37
2016-09-25T08:11:50.129Z,1009.37
2016-09-25T08:12:50.116Z,1009.38
2016-09-25T08:13:50.104Z,1009.4
2016-09-25T08:14:50.096Z,1009.41
2016-09-25T08:15:50.087Z,1009.37
2016-09-25T08:16:50.318Z,1009.33
2016-09-25T08:17:50.085Z,1009.38
2016-09-25T08:18:50.060Z,1009.33
2016-09-25T08:19:50.050Z,1009.36
2016-09-25T08:20:50.052Z,1009.32
2016-09-25T08:21:50.037Z,1009.33
2016-09-25T08:22:50.025Z,1009.29
2016-09-25T08:23:50.022Z,1009.27
2016-09-25T08:24:50.005Z,1009.29
2016-09-25T08:25:49.996Z,1009.27
2016-09-25T08:26:49.988Z,1009.29
2016-09-25T08:27:49.979Z,1009.26
2016-09-25T08:28:49.980Z,1009.25
2016-09-25T08:29:49.962Z,1009.23
2016-09-25T08:30:49.953Z,1009.26
2016-09-25T08:31:49.946Z,1009.21
2016-09-25T08:32:49.940Z,1009.22
2016-09-25T08:33:49.927Z,1009.18
2016-09-25T08:34:49.917Z,1009.1
2016-09-25T08:35:49.909Z,1009.1
2016-09-25T08:36:49.900Z,1009.11
2016-09-25T08:37:49.891Z,1009.09
2016-09-25T08:38:49.882Z,1009.06
2016-09-25T08:39:49.875Z,1009.06
2016-09-25T08:40:49.866Z,1009.04
2016-09-25T08:41:49.858Z,1009.03
2016-09-25T08:42:49.848Z,1009
2016-09-25T08:43:49.841Z,1009.01
2016-09-25T08:44:49.834Z,1008.98
2016-09-25T08:45:49.822Z,1008.99
2016-09-25T08:46:49.818Z,1008.98
2016-09-25T08:47:49.807Z,1008.99
2016-09-25T08:48:49.798Z,1009
2016-09-25T08:49:49.789Z,1008.95
2016-09-25T08:50:49.782Z,1008.95
2016-09-25T08:51:49.781Z,1008.98
2016-09-25T08:52:49.766Z,1008.95
2016-09-25T08:53:49.758Z,1008.98
2016-09-25T08:54:49.765Z,1008.97
2016-09-25T08:55:49.739Z,1008.95
2016-09-25T08:56:49.737Z,1008.96
2016-09-25T08:57:49.726Z,1008.94
2016-09-25T08:58:49.718Z,1008.93
2016-09-25T08:59:49.711Z,1008.93
2016-09-25T09:00:49.698Z,1008.88
2016-09-25T09:01:49.695Z,1008.87
2016-09-25T09:02:49.683Z,1008.88
2016-09-25T09:03:49.675Z,1008.89
2016-09-25T09:04:49.667Z,1008.85
2016-09-25T09:05:49.659Z,1008.87
2016-09-25T09:06:49.651Z,1008.85
2016-09-25T09:07:49.643Z,1008.89
2016-09-25T09:08:49.635Z,1008.86
2016-09-25T09:09:49.626Z,1008.83
2016-09-25T09:10:49.630Z,1008.81
2016-09-25T09:11:49.611Z,1008.84
2016-09-25T09:12:49.604Z,1008.86
2016-09-25T09:13:49.596Z,1008.85
2016-09-25T09:14:49.588Z,1008.82
2016-09-25T09:15:49.580Z,1008.85
2016-09-25T09:16:49.576Z,1008.82
2016-09-25T09:17:49.566Z,1008.86
2016-09-25T09:18:49.557Z,1008.81
2016-09-25T09:19:49.551Z,1008.79
2016-09-25T09:20:49.543Z,1008.78
2016-09-25T09:21:49.537Z,1008.8
2016-09-25T09:22:49.528Z,1008.76
2016-09-25T09:23:49.522Z,1008.74
2016-09-25T09:24:49.514Z,1008.81
2016-09-25T09:25:49.507Z,1008.77
2016-09-25T09:26:49.499Z,1008.77
2016-09-25T09:27:49.494Z,1008.76
2016-09-25T09:28:49.486Z,1008.77
2016-09-25T09:29:49.478Z,1008.75
2016-09-25T09:30:49.471Z,1008.74
2016-09-25T09:31:49.466Z,1008.72
2016-09-25T09:32:49.459Z,1008.74
2016-09-25T09:33:49.452Z,1008.74
2016-09-25T09:34:49.443Z,1008.72
2016-09-25T09:35:49.436Z,1008.72
2016-09-25T09:36:49.430Z,1008.68
2016-09-25T09:37:49.420Z,1008.69
2016-09-25T09:38:49.414Z,1008.69
2016-09-25T09:39:49.408Z,1008.67
2016-09-25T09:40:49.401Z,1008.69
2016-09-25T09:41:49.394Z,1008.66
2016-09-25T09:42:49.388Z,1008.7
2016-09-25T09:43:49.381Z,1008.73
2016-09-25T09:44:49.374Z,1008.68
2016-09-25T09:45:49.369Z,1008.66
2016-09-25T09:46:49.361Z,1008.67
2016-09-25T09:47:49.354Z,1008.66
2016-09-25T09:48:49.349Z,1008.74
2016-09-25T09:49:49.342Z,1008.71
2016-09-25T09:50:49.335Z,1008.69
2016-09-25T09:51:49.327Z,1008.71
2016-09-25T09:52:49.322Z,1008.7
2016-09-25T09:53:49.317Z,1008.7
2016-09-25T09:54:49.309Z,1008.63
2016-09-25T09:55:49.300Z,1008.65
2016-09-25T09:56:49.293Z,1008.63
2016-09-25T09:57:49.288Z,1008.63
2016-09-25T09:58:49.280Z,1008.61
2016-09-25T09:59:49.275Z,1008.62
2016-09-25T10:00:49.269Z,1008.66
2016-09-25T10:01:49.264Z,1008.64
2016-09-25T10:02:49.255Z,1008.63
2016-09-25T10:03:49.249Z,1008.6
2016-09-25T10:04:49.243Z,1008.63
2016-09-25T10:05:49.235Z,1008.59
2016-09-25T10:06:49.229Z,1008.58
2016-09-25T10:07:49.245Z,1008.56
2016-09-25T10:08:49.219Z,1008.56
2016-09-25T10:09:49.214Z,1008.53
2016-09-25T10:10:49.205Z,1008.54
2016-09-25T10:11:49.200Z,1008.49
2016-09-25T10:12:49.194Z,1008.5
2016-09-25T10:13:49.186Z,1008.49
2016-09-25T10:14:49.180Z,1008.51
2016-09-25T10:15:49.173Z,1008.47
2016-09-25T10:16:49.168Z,1008.47
2016-09-25T10:17:49.161Z,1008.46
2016-09-25T10:18:49.160Z,1008.42
2016-09-25T10:19:49.151Z,1008.46
2016-09-25T10:20:49.146Z,1008.48
2016-09-25T10:21:49.138Z,1008.48
2016-09-25T10:22:49.133Z,1008.47
2016-09-25T10:23:49.126Z,1008.43
2016-09-25T10:24:49.120Z,1008.42
2016-09-25T10:25:49.113Z,1008.42
2016-09-25T10:26:49.110Z,1008.41
2016-09-25T10:27:49.103Z,1008.4
2016-09-25T10:28:49.096Z,1008.38
2016-09-25T10:29:49.091Z,1008.36
2016-09-25T10:30:49.086Z,1008.33
2016-09-25T10:31:49.081Z,1008.4
2016-09-25T10:32:49.075Z,1008.38
2016-09-25T10:33:49.069Z,1008.4
2016-09-25T10:34:49.062Z,1008.41
2016-09-25T10:35:49.057Z,1008.42
2016-09-25T10:36:49.053Z,1008.36
2016-09-25T10:37:49.046Z,1008.37
2016-09-25T10:38:49.040Z,1008.3
2016-09-25T10:39:49.036Z,1008.31
2016-09-25T10:40:49.030Z,1008.32
2016-09-25T10:41:49.023Z,1008.29
2016-09-25T10:42:49.018Z,1008.3
2016-09-25T10:43:49.417Z,1008.28
2016-09-25T10:44:49.008Z,1008.27
2016-09-25T10:45:49.003Z,1008.3
2016-09-25T10:46:48.996Z,1008.28
2016-09-25T10:47:48.992Z,1008.33
2016-09-25T10:48:48.986Z,1008.32
2016-09-25T10:49:48.980Z,1008.31
2016-09-25T10:50:48.975Z,1008.28
2016-09-25T10:51:48.971Z,1008.3
2016-09-25T10:52:49.168Z,1008.32
2016-09-25T10:53:48.959Z,1008.26
2016-09-25T10:54:48.954Z,1008.29
2016-09-25T10:55:48.949Z,1008.25
2016-09-25T10:56:48.945Z,1008.28
2016-09-25T10:57:48.938Z,1008.28
2016-09-25T10:58:48.934Z,1008.26
2016-09-25T10:59:48.930Z,1008.28
2016-09-25T11:00:48.926Z,1008.27
2016-09-25T11:01:48.919Z,1008.3
2016-09-25T11:02:48.921Z,1008.3
2016-09-25T11:03:48.912Z,1008.26
2016-09-25T11:04:48.906Z,1008.28
2016-09-25T11:05:48.902Z,1008.28
2016-09-25T11:06:48.897Z,1008.24
2016-09-25T11:07:48.893Z,1008.23
2016-09-25T11:08:48.889Z,1008.26
2016-09-25T11:09:48.882Z,1008.23
2016-09-25T11:10:48.877Z,1008.21
2016-09-25T11:11:48.873Z,1008.2
2016-09-25T11:12:48.869Z,1008.18
2016-09-25T11:13:48.865Z,1008.18
2016-09-25T11:14:48.859Z,1008.17
2016-09-25T11:15:48.856Z,1008.17
2016-09-25T11:16:48.854Z,1008.16
2016-09-25T11:17:48.847Z,1008.12
2016-09-25T11:18:48.843Z,1008.17
2016-09-25T11:19:48.838Z,1008.15
2016-09-25T11:20:48.835Z,1008.15
2016-09-25T11:21:48.829Z,1008.13
2016-09-25T11:22:48.824Z,1008.08
2016-09-25T11:23:48.822Z,1008.06
2016-09-25T11:24:48.818Z,1008.1
2016-09-25T11:25:48.813Z,1008.09
2016-09-25T11:26:48.809Z,1008.07
2016-09-25T11:27:48.805Z,1008.08
2016-09-25T11:28:48.801Z,1008.11
2016-09-25T11:29:48.798Z,1008.06
2016-09-25T11:30:48.793Z,1008.08
2016-09-25T11:31:48.791Z,1008.08
2016-09-25T11:32:48.785Z,1008.07
2016-09-25T11:33:48.784Z,1008.03
2016-09-25T11:34:48.781Z,1008.04
2016-09-25T11:35:48.781Z,1008.03
2016-09-25T11:36:48.780Z,1008.01
2016-09-25T11:37:48.770Z,1007.99
2016-09-25T11:38:48.789Z,1007.99
2016-09-25T11:39:48.765Z,1008.02
2016-09-25T11:40:48.763Z,1007.99
2016-09-25T11:41:48.762Z,1008.02
2016-09-25T11:42:48.789Z,1007.98
2016-09-25T11:43:48.756Z,1007.99
2016-09-25T11:44:48.760Z,1007.94
2016-09-25T11:45:48.751Z,1007.95
2016-09-25T11:46:48.753Z,1007.99
2016-09-25T11:47:48.749Z,1008.02
2016-09-25T11:48:48.746Z,1007.98
2016-09-25T11:49:48.744Z,1008.03
2016-09-25T11:50:48.741Z,1008.04
2016-09-25T11:51:48.754Z,1008.03
2016-09-25T11:52:48.749Z,1008.05
2016-09-25T11:53:48.748Z,1007.99
2016-09-25T11:54:48.767Z,1008
2016-09-25T11:55:48.750Z,1008.01
2016-09-25T11:56:48.748Z,1007.99
2016-09-25T11:57:48.745Z,1008.01
2016-09-25T11:58:48.746Z,1008.01
2016-09-25T11:59:48.754Z,1008
2016-09-25T12:00:48.742Z,1008.05
2016-09-25T12:01:48.744Z,1007.99
2016-09-25T12:02:48.752Z,1007.99
2016-09-25T12:03:48.744Z,1007.97
2016-09-25T12:04:48.743Z,1007.97
2016-09-25T12:05:48.753Z,1007.97
2016-09-25T12:06:48.747Z,1007.93
2016-09-25T12:07:48.750Z,1007.96
2016-09-25T12:08:48.752Z,1007.99
2016-09-25T12:09:48.756Z,1007.98